sensor_id;sensor_type;location;lat;lon;timestamp;pressure;altitude;pressure_sealevel;temperature;humidity
15634;BME280;14654;48.898;8.308;2022-08-21T00:01:02;100364.88;;;17.01;98.48
15634;BME280;14654;48.898;8.308;2022-08-21T00:03:28;100363.25;;;16.97;98.97
15634;BME280;14654;48.898;8.308;2022-08-21T00:05:53;100368.63;;;16.92;99.60
15634;BME280;14654;48.898;8.308;2022-08-21T00:08:20;100367.88;;;16.88;100.00
15634;BME280;14654;48.898;8.308;2022-08-21T00:10:46;100364.63;;;16.82;99.99
15634;BME280;14654;48.898;8.308;2022-08-21T00:13:12;100368.31;;;16.74;100.00
15634;BME280;14654;48.898;8.308;2022-08-21T00:15:39;100364.16;;;16.69;100.00
15634;BME280;14654;48.898;8.308;2022-08-21T00:18:06;100366.03;;;16.65;100.00
15634;BME280;14654;48.898;8.308;2022-08-21T00:20:32;100361.81;;;16.61;100.00
15634;BME280;14654;48.898;8.308;2022-08-21T00:22:58;100362.72;;;16.60;100.00
15634;BME280;14654;48.898;8.308;2022-08-21T00:25:23;100358.38;;;16.59;100.00
15634;BME280;14654;48.898;8.308;2022-08-21T00:27:49;100353.28;;;16.56;100.00
15634;BME280;14654;48.898;8.308;2022-08-21T00:30:16;100357.69;;;16.54;100.00
15634;BME280;14654;48.898;8.308;2022-08-21T00:32:42;100355.19;;;16.51;100.00
15634;BME280;14654;48.898;8.308;2022-08-21T00:35:11;100354.44;;;16.47;100.00
15634;BME280;14654;48.898;8.308;2022-08-21T00:37:38;100346.59;;;16.47;100.00
15634;BME280;14654;48.898;8.308;2022-08-21T00:40:05;100346.59;;;16.47;100.00
15634;BME280;14654;48.898;8.308;2022-08-21T00:42:31;100350.06;;;16.48;100.00
15634;BME280;14654;48.898;8.308;2022-08-21T00:44:57;100346.63;;;16.45;100.00
15634;BME280;14654;48.898;8.308;2022-08-21T00:47:23;100353.66;;;16.43;100.00
15634;BME280;14654;48.898;8.308;2022-08-21T00:49:49;100350.31;;;16.40;100.00
15634;BME280;14654;48.898;8.308;2022-08-21T00:52:19;100345.25;;;16.34;100.00
15634;BME280;14654;48.898;8.308;2022-08-21T00:54:47;100349.88;;;16.25;100.00
15634;BME280;14654;48.898;8.308;2022-08-21T00:57:19;100354.44;;;16.19;100.00
15634;BME280;14654;48.898;8.308;2022-08-21T00:59:48;100345.09;;;16.11;100.00
15634;BME280;14654;48.898;8.308;2022-08-21T01:02:16;100343.53;;;16.06;100.00
15634;BME280;14654;48.898;8.308;2022-08-21T01:04:41;100347.19;;;16.00;100.00
15634;BME280;14654;48.898;8.308;2022-08-21T01:07:07;100347.25;;;15.97;100.00
15634;BME280;14654;48.898;8.308;2022-08-21T01:09:33;100349.19;;;15.92;100.00
15634;BME280;14654;48.898;8.308;2022-08-21T01:11:59;100348.44;;;15.88;100.00
15634;BME280;14654;48.898;8.308;2022-08-21T01:14:24;100358.94;;;15.83;100.00
15634;BME280;14654;48.898;8.308;2022-08-21T01:16:52;100354.75;;;15.79;100.00
15634;BME280;14654;48.898;8.308;2022-08-21T01:19:20;100344.38;;;15.76;100.00
15634;BME280;14654;48.898;8.308;2022-08-21T01:21:46;100347.09;;;15.73;100.00
15634;BME280;14654;48.898;8.308;2022-08-21T01:24:12;100346.25;;;15.73;100.00
15634;BME280;14654;48.898;8.308;2022-08-21T01:26:38;100338.44;;;15.71;100.00
15634;BME280;14654;48.898;8.308;2022-08-21T01:29:08;100342.81;;;15.70;100.00
15634;BME280;14654;48.898;8.308;2022-08-21T01:31:36;100340.22;;;15.70;100.00
15634;BME280;14654;48.898;8.308;2022-08-21T01:34:02;100348.03;;;15.70;100.00
15634;BME280;14654;48.898;8.308;2022-08-21T01:36:28;100334.19;;;15.68;100.00
15634;BME280;14654;48.898;8.308;2022-08-21T01:38:54;100337.63;;;15.69;100.00
15634;BME280;14654;48.898;8.308;2022-08-21T01:41:20;100335.88;;;15.69;100.00
15634;BME280;14654;48.898;8.308;2022-08-21T01:43:45;100335.91;;;15.68;100.00
15634;BME280;14654;48.898;8.308;2022-08-21T01:46:11;100332.50;;;15.66;100.00
15634;BME280;14654;48.898;8.308;2022-08-21T01:48:37;100346.41;;;15.66;100.00
15634;BME280;14654;48.898;8.308;2022-08-21T01:51:05;100343.81;;;15.66;100.00
15634;BME280;14654;48.898;8.308;2022-08-21T01:53:31;100339.47;;;15.65;100.00
15634;BME280;14654;48.898;8.308;2022-08-21T01:55:59;100344.69;;;15.65;100.00
15634;BME280;14654;48.898;8.308;2022-08-21T01:58:24;100341.25;;;15.65;100.00
15634;BME280;14654;48.898;8.308;2022-08-21T02:00:49;100336.06;;;15.63;100.00
15634;BME280;14654;48.898;8.308;2022-08-21T02:03:15;100339.66;;;15.59;100.00
15634;BME280;14654;48.898;8.308;2022-08-21T02:05:40;100331.97;;;15.54;100.00
15634;BME280;14654;48.898;8.308;2022-08-21T02:08:06;100334.75;;;15.48;100.00
15634;BME280;14654;48.898;8.308;2022-08-21T02:10:32;100327.91;;;15.44;100.00
15634;BME280;14654;48.898;8.308;2022-08-21T02:12:59;100334.97;;;15.41;100.00
15634;BME280;14654;48.898;8.308;2022-08-21T02:15:26;100329.03;;;15.35;100.00
15634;BME280;14654;48.898;8.308;2022-08-21T02:17:55;100336.03;;;15.33;100.00
15634;BME280;14654;48.898;8.308;2022-08-21T02:20:28;100322.19;;;15.31;100.00
15634;BME280;14654;48.898;8.308;2022-08-21T02:22:54;100327.44;;;15.30;100.00
15634;BME280;14654;48.898;8.308;2022-08-21T02:25:21;100321.50;;;15.24;100.00
15634;BME280;14654;48.898;8.308;2022-08-21T02:27:47;100321.69;;;15.18;100.00
15634;BME280;14654;48.898;8.308;2022-08-21T02:30:16;100320.94;;;15.13;100.00
15634;BME280;14654;48.898;8.308;2022-08-21T02:32:42;100319.38;;;15.07;100.00
15634;BME280;14654;48.898;8.308;2022-08-21T02:35:09;100316.00;;;15.04;100.00
15634;BME280;14654;48.898;8.308;2022-08-21T02:37:44;100310.81;;;15.02;100.00
15634;BME280;14654;48.898;8.308;2022-08-21T02:40:10;100305.66;;;15.01;100.00
15634;BME280;14654;48.898;8.308;2022-08-21T02:42:36;100317.91;;;14.97;100.00
15634;BME280;14654;48.898;8.308;2022-08-21T02:45:03;100317.09;;;14.95;100.00
15634;BME280;14654;48.898;8.308;2022-08-21T02:47:28;100315.41;;;14.92;100.00
15634;BME280;14654;48.898;8.308;2022-08-21T02:49:53;100316.34;;;14.90;100.00
15634;BME280;14654;48.898;8.308;2022-08-21T02:52:19;100310.38;;;14.86;100.00
15634;BME280;14654;48.898;8.308;2022-08-21T02:54:44;100314.78;;;14.84;100.00
15634;BME280;14654;48.898;8.308;2022-08-21T02:57:09;100316.63;;;14.81;100.00
15634;BME280;14654;48.898;8.308;2022-08-21T02:59:35;100316.69;;;14.77;100.00
15634;BME280;14654;48.898;8.308;2022-08-21T03:02:00;100316.00;;;14.71;100.00
15634;BME280;14654;48.898;8.308;2022-08-21T03:04:26;100317.81;;;14.66;100.00
15634;BME280;14654;48.898;8.308;2022-08-21T03:06:51;100319.59;;;14.63;100.00
15634;BME280;14654;48.898;8.308;2022-08-21T03:09:16;100317.88;;;14.64;100.00
15634;BME280;14654;48.898;8.308;2022-08-21T03:11:42;100323.03;;;14.66;100.00
15634;BME280;14654;48.898;8.308;2022-08-21T03:14:07;100316.09;;;14.66;100.00
15634;BME280;14654;48.898;8.308;2022-08-21T03:16:32;100327.41;;;14.63;100.00
15634;BME280;14654;48.898;8.308;2022-08-21T03:18:58;100323.09;;;14.62;100.00
15634;BME280;14654;48.898;8.308;2022-08-21T03:21:23;100319.66;;;14.62;100.00
15634;BME280;14654;48.898;8.308;2022-08-21T03:23:48;100319.66;;;14.62;100.00
15634;BME280;14654;48.898;8.308;2022-08-21T03:26:14;100324.03;;;14.60;100.00
15634;BME280;14654;48.898;8.308;2022-08-21T03:28:39;100324.97;;;14.57;100.00
15634;BME280;14654;48.898;8.308;2022-08-21T03:31:04;100322.41;;;14.56;100.00
15634;BME280;14654;48.898;8.308;2022-08-21T03:33:30;100319.84;;;14.54;100.00
15634;BME280;14654;48.898;8.308;2022-08-21T03:36:06;100321.63;;;14.52;100.00
15634;BME280;14654;48.898;8.308;2022-08-21T03:38:33;100315.59;;;14.50;100.00
15634;BME280;14654;48.898;8.308;2022-08-21T03:41:00;100313.88;;;14.51;100.00
15634;BME280;14654;48.898;8.308;2022-08-21T03:43:26;100325.16;;;14.50;100.00
15634;BME280;14654;48.898;8.308;2022-08-21T03:45:51;100322.63;;;14.46;100.00
15634;BME280;14654;48.898;8.308;2022-08-21T03:48:17;100316.66;;;14.43;100.00
15634;BME280;14654;48.898;8.308;2022-08-21T03:50:44;100316.72;;;14.40;100.00
15634;BME280;14654;48.898;8.308;2022-08-21T03:53:14;100315.94;;;14.36;100.00
15634;BME280;14654;48.898;8.308;2022-08-21T03:55:39;100312.59;;;14.31;100.00
15634;BME280;14654;48.898;8.308;2022-08-21T03:58:06;100322.19;;;14.29;100.00
15634;BME280;14654;48.898;8.308;2022-08-21T04:00:32;100329.94;;;14.30;100.00
15634;BME280;14654;48.898;8.308;2022-08-21T04:02:57;100325.72;;;14.26;100.00
15634;BME280;14654;48.898;8.308;2022-08-21T04:05:23;100324.91;;;14.24;100.00
15634;BME280;14654;48.898;8.308;2022-08-21T04:08:00;100328.41;;;14.23;100.00
15634;BME280;14654;48.898;8.308;2022-08-21T04:10:27;100331.06;;;14.20;100.00
15634;BME280;14654;48.898;8.308;2022-08-21T04:12:53;100335.44;;;14.18;100.00
15634;BME280;14654;48.898;8.308;2022-08-21T04:15:20;100338.09;;;14.15;100.00
15634;BME280;14654;48.898;8.308;2022-08-21T04:17:46;100342.53;;;14.11;100.00
15634;BME280;14654;48.898;8.308;2022-08-21T04:20:12;100347.00;;;14.06;100.00
15634;BME280;14654;48.898;8.308;2022-08-21T04:22:38;100348.78;;;14.04;100.00
15634;BME280;14654;48.898;8.308;2022-08-21T04:25:04;100351.47;;;13.99;100.00
15634;BME280;14654;48.898;8.308;2022-08-21T04:27:29;100354.97;;;13.98;100.00
15634;BME280;14654;48.898;8.308;2022-08-21T04:29:55;100349.78;;;13.98;100.00
15634;BME280;14654;48.898;8.308;2022-08-21T04:32:24;100358.38;;;14.00;100.00
15634;BME280;14654;48.898;8.308;2022-08-21T04:34:49;100357.47;;;14.03;100.00
15634;BME280;14654;48.898;8.308;2022-08-21T04:37:15;100361.75;;;14.06;100.00
15634;BME280;14654;48.898;8.308;2022-08-21T04:39:41;100360.91;;;14.05;100.00
15634;BME280;14654;48.898;8.308;2022-08-21T04:42:07;100360.03;;;14.05;100.00
15634;BME280;14654;48.898;8.308;2022-08-21T04:44:33;100365.25;;;14.05;100.00
15634;BME280;14654;48.898;8.308;2022-08-21T04:46:59;100357.31;;;14.09;100.00
15634;BME280;14654;48.898;8.308;2022-08-21T04:49:24;100365.00;;;14.15;100.00
15634;BME280;14654;48.898;8.308;2022-08-21T04:51:49;100371.81;;;14.21;100.00
15634;BME280;14654;48.898;8.308;2022-08-21T04:54:20;100371.69;;;14.27;100.00
15634;BME280;14654;48.898;8.308;2022-08-21T04:56:50;100379.34;;;14.33;100.00
15634;BME280;14654;48.898;8.308;2022-08-21T04:59:23;100375.72;;;14.39;100.00
15634;BME280;14654;48.898;8.308;2022-08-21T05:01:49;100389.44;;;14.47;100.00
15634;BME280;14654;48.898;8.308;2022-08-21T05:04:18;100387.50;;;14.56;100.00
15634;BME280;14654;48.898;8.308;2022-08-21T05:06:46;100395.19;;;14.60;100.00
15634;BME280;14654;48.898;8.308;2022-08-21T05:09:15;100397.66;;;14.67;100.00
15634;BME280;14654;48.898;8.308;2022-08-21T05:11:41;100388.84;;;14.74;100.00
15634;BME280;14654;48.898;8.308;2022-08-21T05:14:08;100391.22;;;14.83;100.00
15634;BME280;14654;48.898;8.308;2022-08-21T05:16:34;100392.75;;;14.92;100.00
15634;BME280;14654;48.898;8.308;2022-08-21T05:18:59;100393.38;;;15.00;100.00
15634;BME280;14654;48.898;8.308;2022-08-21T05:21:24;100396.63;;;15.10;100.00
15634;BME280;14654;48.898;8.308;2022-08-21T05:23:50;100398.94;;;15.21;100.00
15634;BME280;14654;48.898;8.308;2022-08-21T05:26:15;100395.97;;;15.35;100.00
15634;BME280;14654;48.898;8.308;2022-08-21T05:28:40;100396.47;;;15.48;100.00
15634;BME280;14654;48.898;8.308;2022-08-21T05:31:05;100396.97;;;15.94;100.00
15634;BME280;14654;48.898;8.308;2022-08-21T05:33:31;100386.69;;;17.00;100.00
15634;BME280;14654;48.898;8.308;2022-08-21T05:35:56;100384.34;;;18.14;97.36
15634;BME280;14654;48.898;8.308;2022-08-21T05:38:25;100390.88;;;19.12;93.65
15634;BME280;14654;48.898;8.308;2022-08-21T05:40:53;100373.91;;;19.99;90.54
15634;BME280;14654;48.898;8.308;2022-08-21T05:43:19;100371.50;;;20.67;88.06
15634;BME280;14654;48.898;8.308;2022-08-21T05:45:45;100370.34;;;21.26;86.09
15634;BME280;14654;48.898;8.308;2022-08-21T05:48:19;100373.44;;;21.84;83.79
15634;BME280;14654;48.898;8.308;2022-08-21T05:50:46;100370.78;;;22.32;82.06
15634;BME280;14654;48.898;8.308;2022-08-21T05:53:13;100372.88;;;22.88;80.28
15634;BME280;14654;48.898;8.308;2022-08-21T05:55:40;100367.88;;;23.42;78.70
15634;BME280;14654;48.898;8.308;2022-08-21T05:58:06;100366.31;;;23.82;77.24
15634;BME280;14654;48.898;8.308;2022-08-21T06:00:31;100362.84;;;24.23;75.95
15634;BME280;14654;48.898;8.308;2022-08-21T06:02:57;100363.69;;;24.64;74.98
15634;BME280;14654;48.898;8.308;2022-08-21T06:05:23;100371.25;;;24.96;73.49
15634;BME280;14654;48.898;8.308;2022-08-21T06:07:48;100370.53;;;25.33;72.59
15634;BME280;14654;48.898;8.308;2022-08-21T06:10:14;100367.34;;;25.53;71.28
15634;BME280;14654;48.898;8.308;2022-08-21T06:12:39;100370.47;;;25.84;70.40
15634;BME280;14654;48.898;8.308;2022-08-21T06:15:05;100367.56;;;26.25;69.42
15634;BME280;14654;48.898;8.308;2022-08-21T06:17:30;100361.78;;;26.55;68.66
15634;BME280;14654;48.898;8.308;2022-08-21T06:19:56;100367.22;;;26.89;67.93
15634;BME280;14654;48.898;8.308;2022-08-21T06:22:21;100366.28;;;27.24;67.65
15634;BME280;14654;48.898;8.308;2022-08-21T06:24:47;100367.78;;;27.63;66.95
15634;BME280;14654;48.898;8.308;2022-08-21T06:27:13;100364.44;;;27.93;66.48
15634;BME280;14654;48.898;8.308;2022-08-21T06:29:38;100366.69;;;28.21;66.05
15634;BME280;14654;48.898;8.308;2022-08-21T06:32:04;100360.19;;;28.46;65.53
15634;BME280;14654;48.898;8.308;2022-08-21T06:34:36;100361.88;;;28.68;65.03
15634;BME280;14654;48.898;8.308;2022-08-21T06:37:01;100359.94;;;28.92;64.05
15634;BME280;14654;48.898;8.308;2022-08-21T06:39:27;100366.16;;;29.02;63.09
15634;BME280;14654;48.898;8.308;2022-08-21T06:41:52;100362.19;;;29.17;63.05
15634;BME280;14654;48.898;8.308;2022-08-21T06:44:17;100364.25;;;29.35;62.93
15634;BME280;14654;48.898;8.308;2022-08-21T06:46:43;100366.09;;;29.44;62.18
15634;BME280;14654;48.898;8.308;2022-08-21T06:49:08;100358.59;;;29.59;61.82
15634;BME280;14654;48.898;8.308;2022-08-21T06:51:34;100356.94;;;29.68;61.58
15634;BME280;14654;48.898;8.308;2022-08-21T06:53:59;100355.13;;;29.78;60.89
15634;BME280;14654;48.898;8.308;2022-08-21T06:56:24;100356.53;;;29.83;60.82
15634;BME280;14654;48.898;8.308;2022-08-21T06:58:50;100366.78;;;29.87;60.25
15634;BME280;14654;48.898;8.308;2022-08-21T07:01:15;100363.97;;;29.89;60.14
15634;BME280;14654;48.898;8.308;2022-08-21T07:03:42;100366.13;;;29.95;59.99
15634;BME280;14654;48.898;8.308;2022-08-21T07:06:09;100360.22;;;29.91;60.41
15634;BME280;14654;48.898;8.308;2022-08-21T07:08:35;100360.22;;;29.91;60.15
15634;BME280;14654;48.898;8.308;2022-08-21T07:11:03;100363.00;;;29.90;59.75
15634;BME280;14654;48.898;8.308;2022-08-21T07:13:31;100354.97;;;29.80;59.45
15634;BME280;14654;48.898;8.308;2022-08-21T07:15:57;100358.88;;;29.66;59.38
15634;BME280;14654;48.898;8.308;2022-08-21T07:18:22;100362.19;;;29.48;59.85
15634;BME280;14654;48.898;8.308;2022-08-21T07:20:47;100355.41;;;29.34;60.15
15634;BME280;14654;48.898;8.308;2022-08-21T07:23:23;100356.91;;;29.27;60.67
15634;BME280;14654;48.898;8.308;2022-08-21T07:25:49;100354.19;;;29.17;60.50
15634;BME280;14654;48.898;8.308;2022-08-21T07:28:16;100354.41;;;29.04;60.89
15634;BME280;14654;48.898;8.308;2022-08-21T07:30:41;100352.69;;;28.94;61.50
15634;BME280;14654;48.898;8.308;2022-08-21T07:33:07;100357.38;;;28.80;61.70
15634;BME280;14654;48.898;8.308;2022-08-21T07:35:33;100355.13;;;28.64;62.48
15634;BME280;14654;48.898;8.308;2022-08-21T07:37:58;100344.94;;;28.48;62.64
15634;BME280;14654;48.898;8.308;2022-08-21T07:40:24;100347.03;;;28.33;62.95
15634;BME280;14654;48.898;8.308;2022-08-21T07:42:49;100355.72;;;28.14;63.46
15634;BME280;14654;48.898;8.308;2022-08-21T07:45:18;100344.84;;;27.94;63.58
15634;BME280;14654;48.898;8.308;2022-08-21T07:47:44;100350.34;;;27.81;64.38
15634;BME280;14654;48.898;8.308;2022-08-21T07:50:11;100357.63;;;27.68;64.58
15634;BME280;14654;48.898;8.308;2022-08-21T07:52:36;100355.81;;;27.46;64.51
15634;BME280;14654;48.898;8.308;2022-08-21T07:55:02;100349.88;;;27.19;64.73
15634;BME280;14654;48.898;8.308;2022-08-21T07:57:27;100347.78;;;27.00;65.11
15634;BME280;14654;48.898;8.308;2022-08-21T07:59:53;100351.75;;;26.83;65.40
15634;BME280;14654;48.898;8.308;2022-08-21T08:02:27;100349.63;;;26.64;66.16
15634;BME280;14654;48.898;8.308;2022-08-21T08:04:53;100348.88;;;26.51;66.32
15634;BME280;14654;48.898;8.308;2022-08-21T08:07:18;100346.41;;;26.36;66.78
15634;BME280;14654;48.898;8.308;2022-08-21T08:09:44;100346.34;;;26.25;67.22
15634;BME280;14654;48.898;8.308;2022-08-21T08:12:09;100344.16;;;26.19;67.38
15634;BME280;14654;48.898;8.308;2022-08-21T08:14:35;100346.09;;;26.16;67.79
15634;BME280;14654;48.898;8.308;2022-08-21T08:17:01;100347.38;;;26.11;67.71
15634;BME280;14654;48.898;8.308;2022-08-21T08:19:27;100346.09;;;26.03;68.11
15634;BME280;14654;48.898;8.308;2022-08-21T08:21:53;100344.97;;;25.95;68.72
15634;BME280;14654;48.898;8.308;2022-08-21T08:24:18;100333.47;;;25.83;69.10
15634;BME280;14654;48.898;8.308;2022-08-21T08:26:44;100333.28;;;25.73;69.42
15634;BME280;14654;48.898;8.308;2022-08-21T08:29:09;100333.53;;;25.57;69.22
15634;BME280;14654;48.898;8.308;2022-08-21T08:31:34;100331.66;;;25.46;69.42
15634;BME280;14654;48.898;8.308;2022-08-21T08:34:00;100327.41;;;25.31;68.83
15634;BME280;14654;48.898;8.308;2022-08-21T08:36:33;100327.84;;;25.24;69.23
15634;BME280;14654;48.898;8.308;2022-08-21T08:38:59;100324.38;;;25.24;69.29
15634;BME280;14654;48.898;8.308;2022-08-21T08:41:25;100317.03;;;25.27;69.57
15634;BME280;14654;48.898;8.308;2022-08-21T08:43:55;100314.59;;;25.24;69.35
15634;BME280;14654;48.898;8.308;2022-08-21T08:46:43;100323.63;;;25.22;69.34
15634;BME280;14654;48.898;8.308;2022-08-21T08:49:23;100320.84;;;25.23;69.34
15634;BME280;14654;48.898;8.308;2022-08-21T08:52:10;100314.38;;;25.27;69.53
15634;BME280;14654;48.898;8.308;2022-08-21T08:54:45;100314.91;;;25.33;68.67
15634;BME280;14654;48.898;8.308;2022-08-21T08:57:19;100310.03;;;25.26;68.43
15634;BME280;14654;48.898;8.308;2022-08-21T08:59:49;100306.88;;;25.21;68.01
15634;BME280;14654;48.898;8.308;2022-08-21T09:02:16;100305.16;;;25.20;68.09
15634;BME280;14654;48.898;8.308;2022-08-21T09:04:44;100303.47;;;25.19;68.00
15634;BME280;14654;48.898;8.308;2022-08-21T09:10:26;100299.31;;;25.28;68.13
15634;BME280;14654;48.898;8.308;2022-08-21T09:18:09;100274.00;;;25.50;67.45
15634;BME280;14654;48.898;8.308;2022-08-21T09:23:23;100275.88;;;25.61;67.24
15634;BME280;14654;48.898;8.308;2022-08-21T09:28:15;100265.38;;;25.59;66.65
15634;BME280;14654;48.898;8.308;2022-08-21T09:30:41;100264.88;;;25.54;66.40
15634;BME280;14654;48.898;8.308;2022-08-21T09:33:09;100263.53;;;25.48;66.41
15634;BME280;14654;48.898;8.308;2022-08-21T09:35:34;100258.31;;;25.47;66.13
15634;BME280;14654;48.898;8.308;2022-08-21T09:38:05;100254.16;;;25.55;66.54
15634;BME280;14654;48.898;8.308;2022-08-21T09:45:31;100248.00;;;25.79;66.32
15634;BME280;14654;48.898;8.308;2022-08-21T09:48:08;100247.56;;;25.85;66.09
15634;BME280;14654;48.898;8.308;2022-08-21T09:50:33;100246.25;;;25.91;66.20
15634;BME280;14654;48.898;8.308;2022-08-21T09:53:00;100248.34;;;25.99;66.16
15634;BME280;14654;48.898;8.308;2022-08-21T09:55:33;100241.97;;;26.01;65.45
15634;BME280;14654;48.898;8.308;2022-08-21T09:58:18;100236.97;;;25.85;65.05
15634;BME280;14654;48.898;8.308;2022-08-21T10:00:45;100244.09;;;25.85;65.29
15634;BME280;14654;48.898;8.308;2022-08-21T10:03:20;100251.94;;;25.98;64.95
15634;BME280;14654;48.898;8.308;2022-08-21T10:05:52;100246.03;;;25.94;65.18
15634;BME280;14654;48.898;8.308;2022-08-21T10:08:19;100243.50;;;25.93;65.12
15634;BME280;14654;48.898;8.308;2022-08-21T10:10:50;100238.13;;;25.81;64.33
15634;BME280;14654;48.898;8.308;2022-08-21T10:13:24;100233.28;;;25.99;64.25
15634;BME280;14654;48.898;8.308;2022-08-21T10:18:30;100232.25;;;26.13;64.23
15634;BME280;14654;48.898;8.308;2022-08-21T10:23:41;100235.69;;;26.27;63.88
15634;BME280;14654;48.898;8.308;2022-08-21T10:26:10;100230.88;;;26.43;63.82
15634;BME280;14654;48.898;8.308;2022-08-21T10:28:44;100234.53;;;26.54;63.38
15634;BME280;14654;48.898;8.308;2022-08-21T10:36:43;100217.03;;;26.62;61.80
15634;BME280;14654;48.898;8.308;2022-08-21T10:39:21;100219.94;;;26.71;62.51
15634;BME280;14654;48.898;8.308;2022-08-21T10:55:06;100205.13;;;26.91;60.53
15634;BME280;14654;48.898;8.308;2022-08-21T11:00:22;100206.81;;;27.15;60.09
15634;BME280;14654;48.898;8.308;2022-08-21T11:05:35;100209.72;;;27.12;59.21
15634;BME280;14654;48.898;8.308;2022-08-21T11:08:14;100205.34;;;27.11;58.89
15634;BME280;14654;48.898;8.308;2022-08-21T11:10:42;100200.53;;;27.04;59.27
15634;BME280;14654;48.898;8.308;2022-08-21T11:13:14;100190.88;;;27.15;59.82
15634;BME280;14654;48.898;8.308;2022-08-21T11:16:10;100182.00;;;27.26;60.49
15634;BME280;14654;48.898;8.308;2022-08-21T11:19:08;100187.16;;;27.50;61.44
15634;BME280;14654;48.898;8.308;2022-08-21T11:22:07;100182.66;;;27.62;61.09
15634;BME280;14654;48.898;8.308;2022-08-21T11:24:52;100178.78;;;27.66;60.61
15634;BME280;14654;48.898;8.308;2022-08-21T11:29:59;100173.66;;;27.74;61.04
15634;BME280;14654;48.898;8.308;2022-08-21T11:38:17;100168.34;;;27.95;59.85
15634;BME280;14654;48.898;8.308;2022-08-21T11:41:12;100162.63;;;28.00;60.00
15634;BME280;14654;48.898;8.308;2022-08-21T11:49:14;100156.56;;;27.88;57.89
15634;BME280;14654;48.898;8.308;2022-08-21T11:51:48;100152.31;;;27.64;58.05
15634;BME280;14654;48.898;8.308;2022-08-21T11:54:40;100155.84;;;27.65;58.41
15634;BME280;14654;48.898;8.308;2022-08-21T11:57:16;100148.19;;;27.72;58.96
15634;BME280;14654;48.898;8.308;2022-08-21T12:02:33;100150.97;;;27.91;58.70
15634;BME280;14654;48.898;8.308;2022-08-21T12:05:05;100147.66;;;27.99;58.64
15634;BME280;14654;48.898;8.308;2022-08-21T12:07:42;100144.88;;;28.01;58.60
15634;BME280;14654;48.898;8.308;2022-08-21T12:10:15;100146.56;;;28.02;57.91
15634;BME280;14654;48.898;8.308;2022-08-21T12:12:42;100142.31;;;27.99;57.78
15634;BME280;14654;48.898;8.308;2022-08-21T12:17:59;100137.16;;;27.97;57.70
15634;BME280;14654;48.898;8.308;2022-08-21T12:25:42;100134.09;;;27.81;58.16
15634;BME280;14654;48.898;8.308;2022-08-21T12:28:22;100130.34;;;27.83;57.87
15634;BME280;14654;48.898;8.308;2022-08-21T12:30:48;100133.00;;;27.83;57.81
15634;BME280;14654;48.898;8.308;2022-08-21T12:33:38;100121.72;;;27.91;57.30
15634;BME280;14654;48.898;8.308;2022-08-21T12:36:11;100127.03;;;27.91;56.79
15634;BME280;14654;48.898;8.308;2022-08-21T12:38:58;100127.56;;;27.85;56.78
15634;BME280;14654;48.898;8.308;2022-08-21T12:41:32;100126.78;;;27.73;56.75
15634;BME280;14654;48.898;8.308;2022-08-21T12:46:50;100121.59;;;27.72;56.95
15634;BME280;14654;48.898;8.308;2022-08-21T12:52:07;100120.56;;;27.84;57.39
15634;BME280;14654;48.898;8.308;2022-08-21T12:54:41;100110.25;;;27.91;57.81
15634;BME280;14654;48.898;8.308;2022-08-21T12:57:07;100117.56;;;27.98;57.78
15634;BME280;14654;48.898;8.308;2022-08-21T12:59:38;100113.03;;;27.89;57.29
15634;BME280;14654;48.898;8.308;2022-08-21T13:02:11;100113.28;;;27.86;57.09
15634;BME280;14654;48.898;8.308;2022-08-21T13:04:40;100115.56;;;27.91;57.48
15634;BME280;14654;48.898;8.308;2022-08-21T13:07:08;100112.09;;;28.00;57.14
15634;BME280;14654;48.898;8.308;2022-08-21T13:09:42;100111.72;;;28.05;56.88
15634;BME280;14654;48.898;8.308;2022-08-21T13:12:09;100104.00;;;28.02;57.17
15634;BME280;14654;48.898;8.308;2022-08-21T13:14:38;100102.31;;;28.01;57.35
15634;BME280;14654;48.898;8.308;2022-08-21T13:17:05;100095.47;;;27.98;57.53
15634;BME280;14654;48.898;8.308;2022-08-21T13:19:32;100093.47;;;28.00;57.89
15634;BME280;14654;48.898;8.308;2022-08-21T13:21:59;100095.47;;;27.98;57.80
15634;BME280;14654;48.898;8.308;2022-08-21T13:24:27;100094.78;;;27.84;57.77
15634;BME280;14654;48.898;8.308;2022-08-21T13:26:53;100095.34;;;27.78;57.68
15634;BME280;14654;48.898;8.308;2022-08-21T13:29:23;100090.84;;;27.79;58.02
15634;BME280;14654;48.898;8.308;2022-08-21T13:32:00;100094.22;;;27.81;57.07
15634;BME280;14654;48.898;8.308;2022-08-21T13:34:31;100095.34;;;27.78;57.35
15634;BME280;14654;48.898;8.308;2022-08-21T13:37:00;100086.81;;;27.84;57.44
15634;BME280;14654;48.898;8.308;2022-08-21T13:39:28;100090.09;;;27.88;56.57
15634;BME280;14654;48.898;8.308;2022-08-21T13:41:59;100091.06;;;27.87;56.61
15634;BME280;14654;48.898;8.308;2022-08-21T13:46:58;100092.59;;;27.90;56.83
15634;BME280;14654;48.898;8.308;2022-08-21T13:49:30;100090.66;;;27.92;57.26
15634;BME280;14654;48.898;8.308;2022-08-21T13:51:56;100081.81;;;27.91;56.42
15634;BME280;14654;48.898;8.308;2022-08-21T13:54:53;100074.94;;;27.89;56.17
15634;BME280;14654;48.898;8.308;2022-08-21T13:57:33;100079.31;;;27.90;56.62
15634;BME280;14654;48.898;8.308;2022-08-21T14:00:28;100071.19;;;27.91;57.12
15634;BME280;14654;48.898;8.308;2022-08-21T14:03:05;100070.22;;;27.92;57.35
15634;BME280;14654;48.898;8.308;2022-08-21T14:05:34;100073.00;;;27.91;57.23
15634;BME280;14654;48.898;8.308;2022-08-21T14:08:46;100072.19;;;27.90;57.10
15634;BME280;14654;48.898;8.308;2022-08-21T14:10:51;100070.59;;;27.88;57.00
15634;BME280;14654;48.898;8.308;2022-08-21T14:13:41;100068.09;;;27.86;56.61